sensor_id;sensor_type;location;lat;lon;timestamp;P1;durP1;ratioP1;P2;durP2;ratioP2
65387;SDS011;51992;53.528;49.474;2023-07-13T00:02:07;5.70;;;2.65;;
65387;SDS011;51992;53.528;49.474;2023-07-13T00:04:32;8.55;;;3.38;;
65387;SDS011;51992;53.528;49.474;2023-07-13T00:06:58;6.47;;;2.60;;
65387;SDS011;51992;53.528;49.474;2023-07-13T00:09:24;2.72;;;2.42;;
65387;SDS011;51992;53.528;49.474;2023-07-13T00:11:54;5.68;;;2.30;;
65387;SDS011;51992;53.528;49.474;2023-07-13T00:14:20;5.57;;;2.20;;
65387;SDS011;51992;53.528;49.474;2023-07-13T00:16:46;4.72;;;2.50;;
65387;SDS011;51992;53.528;49.474;2023-07-13T00:19:13;3.78;;;2.20;;
65387;SDS011;51992;53.528;49.474;2023-07-13T00:21:39;4.40;;;1.77;;
65387;SDS011;51992;53.528;49.474;2023-07-13T00:24:06;2.67;;;2.10;;
65387;SDS011;51992;53.528;49.474;2023-07-13T00:26:32;2.30;;;2.10;;
65387;SDS011;51992;53.528;49.474;2023-07-13T00:28:59;4.90;;;2.25;;
65387;SDS011;51992;53.528;49.474;2023-07-13T00:31:25;2.60;;;2.40;;
65387;SDS011;51992;53.528;49.474;2023-07-13T00:33:51;3.22;;;2.50;;
65387;SDS011;51992;53.528;49.474;2023-07-13T00:36:17;4.18;;;2.30;;
65387;SDS011;51992;53.528;49.474;2023-07-13T00:38:43;2.35;;;2.15;;
65387;SDS011;51992;53.528;49.474;2023-07-13T00:41:09;5.53;;;2.30;;
65387;SDS011;51992;53.528;49.474;2023-07-13T00:43:35;3.97;;;2.35;;
65387;SDS011;51992;53.528;49.474;2023-07-13T00:48:29;5.70;;;2.65;;
65387;SDS011;51992;53.528;49.474;2023-07-13T00:50:57;4.20;;;2.72;;
65387;SDS011;51992;53.528;49.474;2023-07-13T00:53:24;6.78;;;2.55;;
65387;SDS011;51992;53.528;49.474;2023-07-13T00:55:51;2.97;;;2.00;;
65387;SDS011;51992;53.528;49.474;2023-07-13T00:58:17;5.68;;;2.15;;
65387;SDS011;51992;53.528;49.474;2023-07-13T01:00:43;2.55;;;1.85;;
65387;SDS011;51992;53.528;49.474;2023-07-13T01:03:09;3.80;;;2.10;;
65387;SDS011;51992;53.528;49.474;2023-07-13T01:05:35;3.40;;;1.83;;
65387;SDS011;51992;53.528;49.474;2023-07-13T01:08:02;3.13;;;1.80;;
65387;SDS011;51992;53.528;49.474;2023-07-13T01:10:30;8.32;;;2.67;;
65387;SDS011;51992;53.528;49.474;2023-07-13T01:13:08;5.97;;;3.22;;
65387;SDS011;51992;53.528;49.474;2023-07-13T01:15:42;4.22;;;2.28;;
65387;SDS011;51992;53.528;49.474;2023-07-13T01:18:27;8.10;;;2.80;;
65387;SDS011;51992;53.528;49.474;2023-07-13T01:20:55;5.43;;;2.70;;
65387;SDS011;51992;53.528;49.474;2023-07-13T01:23:21;4.85;;;2.53;;
65387;SDS011;51992;53.528;49.474;2023-07-13T01:25:47;3.78;;;2.45;;
65387;SDS011;51992;53.528;49.474;2023-07-13T01:28:13;4.75;;;2.08;;
65387;SDS011;51992;53.528;49.474;2023-07-13T01:30:39;2.35;;;1.83;;
65387;SDS011;51992;53.528;49.474;2023-07-13T01:33:06;2.10;;;1.85;;
65387;SDS011;51992;53.528;49.474;2023-07-13T01:35:33;40.28;;;33.33;;
65387;SDS011;51992;53.528;49.474;2023-07-13T01:37:59;57.55;;;47.40;;
65387;SDS011;51992;53.528;49.474;2023-07-13T01:40:27;27.17;;;20.48;;
65387;SDS011;51992;53.528;49.474;2023-07-13T01:42:52;14.57;;;8.25;;
65387;SDS011;51992;53.528;49.474;2023-07-13T01:45:18;7.82;;;4.03;;
65387;SDS011;51992;53.528;49.474;2023-07-13T01:47:44;5.47;;;2.40;;
65387;SDS011;51992;53.528;49.474;2023-07-13T01:50:10;6.25;;;2.78;;
65387;SDS011;51992;53.528;49.474;2023-07-13T01:52:36;4.22;;;3.28;;
65387;SDS011;51992;53.528;49.474;2023-07-13T01:55:02;5.53;;;4.10;;
65387;SDS011;51992;53.528;49.474;2023-07-13T01:57:28;3.55;;;2.50;;
65387;SDS011;51992;53.528;49.474;2023-07-13T01:59:54;3.78;;;2.03;;
65387;SDS011;51992;53.528;49.474;2023-07-13T02:02:20;2.35;;;1.70;;
65387;SDS011;51992;53.528;49.474;2023-07-13T02:04:46;2.38;;;1.77;;
65387;SDS011;51992;53.528;49.474;2023-07-13T02:07:11;2.90;;;2.00;;
65387;SDS011;51992;53.528;49.474;2023-07-13T02:09:37;7.20;;;1.80;;
65387;SDS011;51992;53.528;49.474;2023-07-13T02:12:03;2.65;;;1.70;;
65387;SDS011;51992;53.528;49.474;2023-07-13T02:14:29;5.00;;;1.95;;
65387;SDS011;51992;53.528;49.474;2023-07-13T02:16:55;12.13;;;9.48;;
65387;SDS011;51992;53.528;49.474;2023-07-13T02:19:21;21.75;;;18.95;;
65387;SDS011;51992;53.528;49.474;2023-07-13T02:21:47;22.65;;;18.35;;
65387;SDS011;51992;53.528;49.474;2023-07-13T02:24:13;18.90;;;14.15;;
65387;SDS011;51992;53.528;49.474;2023-07-13T02:26:43;6.85;;;5.63;;
65387;SDS011;51992;53.528;49.474;2023-07-13T02:29:09;5.40;;;3.40;;
65387;SDS011;51992;53.528;49.474;2023-07-13T02:31:35;6.95;;;3.10;;
65387;SDS011;51992;53.528;49.474;2023-07-13T02:34:01;49.15;;;39.53;;
65387;SDS011;51992;53.528;49.474;2023-07-13T02:36:28;35.95;;;29.75;;
65387;SDS011;51992;53.528;49.474;2023-07-13T02:38:54;19.92;;;13.55;;
65387;SDS011;51992;53.528;49.474;2023-07-13T02:41:20;9.23;;;5.95;;
65387;SDS011;51992;53.528;49.474;2023-07-13T02:43:47;4.93;;;3.00;;
65387;SDS011;51992;53.528;49.474;2023-07-13T02:46:13;4.18;;;2.20;;
65387;SDS011;51992;53.528;49.474;2023-07-13T02:48:39;3.03;;;2.13;;
65387;SDS011;51992;53.528;49.474;2023-07-13T02:51:05;5.50;;;2.15;;
65387;SDS011;51992;53.528;49.474;2023-07-13T02:53:31;2.47;;;1.90;;
65387;SDS011;51992;53.528;49.474;2023-07-13T02:55:57;3.00;;;2.28;;
65387;SDS011;51992;53.528;49.474;2023-07-13T02:58:23;4.88;;;2.45;;
65387;SDS011;51992;53.528;49.474;2023-07-13T03:00:49;5.53;;;2.40;;
65387;SDS011;51992;53.528;49.474;2023-07-13T03:03:15;9.18;;;2.80;;
65387;SDS011;51992;53.528;49.474;2023-07-13T03:05:42;8.70;;;2.95;;
65387;SDS011;51992;53.528;49.474;2023-07-13T03:08:09;9.25;;;3.10;;
65387;SDS011;51992;53.528;49.474;2023-07-13T03:10:35;3.42;;;2.35;;
65387;SDS011;51992;53.528;49.474;2023-07-13T03:13:01;8.32;;;2.67;;
65387;SDS011;51992;53.528;49.474;2023-07-13T03:15:27;5.75;;;3.20;;
65387;SDS011;51992;53.528;49.474;2023-07-13T03:17:53;4.50;;;2.85;;
65387;SDS011;51992;53.528;49.474;2023-07-13T03:20:19;2.85;;;2.58;;
65387;SDS011;51992;53.528;49.474;2023-07-13T03:22:45;3.15;;;2.20;;
65387;SDS011;51992;53.528;49.474;2023-07-13T03:25:11;2.45;;;2.22;;
65387;SDS011;51992;53.528;49.474;2023-07-13T03:27:37;3.20;;;2.25;;
65387;SDS011;51992;53.528;49.474;2023-07-13T03:30:04;2.72;;;2.10;;
65387;SDS011;51992;53.528;49.474;2023-07-13T03:32:30;3.45;;;1.83;;
65387;SDS011;51992;53.528;49.474;2023-07-13T03:34:56;2.55;;;2.13;;
65387;SDS011;51992;53.528;49.474;2023-07-13T03:37:22;3.58;;;2.08;;
65387;SDS011;51992;53.528;49.474;2023-07-13T03:39:47;1.88;;;1.73;;
65387;SDS011;51992;53.528;49.474;2023-07-13T03:42:14;5.03;;;2.50;;
65387;SDS011;51992;53.528;49.474;2023-07-13T03:44:40;1.70;;;1.60;;
65387;SDS011;51992;53.528;49.474;2023-07-13T03:47:06;3.03;;;2.75;;
65387;SDS011;51992;53.528;49.474;2023-07-13T03:49:34;1.30;;;1.27;;
65387;SDS011;51992;53.528;49.474;2023-07-13T03:52:00;2.45;;;1.50;;
65387;SDS011;51992;53.528;49.474;2023-07-13T03:54:26;4.07;;;1.75;;
65387;SDS011;51992;53.528;49.474;2023-07-13T03:56:52;3.47;;;1.65;;
65387;SDS011;51992;53.528;49.474;2023-07-13T03:59:17;2.90;;;2.00;;
65387;SDS011;51992;53.528;49.474;2023-07-13T04:01:44;4.03;;;1.85;;
65387;SDS011;51992;53.528;49.474;2023-07-13T04:04:10;1.85;;;1.58;;
65387;SDS011;51992;53.528;49.474;2023-07-13T04:06:37;2.80;;;1.67;;
65387;SDS011;51992;53.528;49.474;2023-07-13T04:09:03;2.03;;;1.63;;
65387;SDS011;51992;53.528;49.474;2023-07-13T04:11:32;5.60;;;2.10;;
65387;SDS011;51992;53.528;49.474;2023-07-13T04:14:02;3.85;;;2.25;;
65387;SDS011;51992;53.528;49.474;2023-07-13T04:16:31;8.10;;;4.57;;
65387;SDS011;51992;53.528;49.474;2023-07-13T04:18:57;3.78;;;3.40;;
65387;SDS011;51992;53.528;49.474;2023-07-13T04:21:26;6.85;;;3.50;;
65387;SDS011;51992;53.528;49.474;2023-07-13T04:23:52;6.03;;;2.70;;
65387;SDS011;51992;53.528;49.474;2023-07-13T04:26:18;8.40;;;2.40;;
65387;SDS011;51992;53.528;49.474;2023-07-13T04:28:46;5.30;;;2.05;;
65387;SDS011;51992;53.528;49.474;2023-07-13T04:31:12;6.88;;;2.55;;
65387;SDS011;51992;53.528;49.474;2023-07-13T04:33:38;3.50;;;2.03;;
65387;SDS011;51992;53.528;49.474;2023-07-13T04:36:03;2.75;;;2.10;;
65387;SDS011;51992;53.528;49.474;2023-07-13T04:38:30;3.85;;;2.58;;
65387;SDS011;51992;53.528;49.474;2023-07-13T04:40:57;5.93;;;2.03;;
65387;SDS011;51992;53.528;49.474;2023-07-13T04:43:23;10.32;;;3.25;;
65387;SDS011;51992;53.528;49.474;2023-07-13T04:45:50;12.95;;;2.70;;
65387;SDS011;51992;53.528;49.474;2023-07-13T04:48:16;4.10;;;2.25;;
65387;SDS011;51992;53.528;49.474;2023-07-13T04:50:41;10.15;;;2.83;;
65387;SDS011;51992;53.528;49.474;2023-07-13T04:53:08;6.15;;;2.13;;
65387;SDS011;51992;53.528;49.474;2023-07-13T04:55:34;6.78;;;2.20;;
65387;SDS011;51992;53.528;49.474;2023-07-13T04:58:00;3.22;;;2.25;;
65387;SDS011;51992;53.528;49.474;2023-07-13T05:00:26;25.00;;;3.25;;
65387;SDS011;51992;53.528;49.474;2023-07-13T05:02:52;4.93;;;2.17;;
65387;SDS011;51992;53.528;49.474;2023-07-13T05:05:17;8.05;;;2.03;;
65387;SDS011;51992;53.528;49.474;2023-07-13T05:07:43;12.60;;;2.90;;
65387;SDS011;51992;53.528;49.474;2023-07-13T05:10:09;3.22;;;1.67;;
65387;SDS011;51992;53.528;49.474;2023-07-13T05:12:35;5.00;;;2.50;;
65387;SDS011;51992;53.528;49.474;2023-07-13T05:15:01;3.20;;;1.63;;
65387;SDS011;51992;53.528;49.474;2023-07-13T05:17:27;2.22;;;1.70;;
65387;SDS011;51992;53.528;49.474;2023-07-13T05:19:53;2.58;;;1.90;;
65387;SDS011;51992;53.528;49.474;2023-07-13T05:22:18;6.50;;;1.77;;
65387;SDS011;51992;53.528;49.474;2023-07-13T05:24:46;2.42;;;1.83;;
65387;SDS011;51992;53.528;49.474;2023-07-13T05:27:19;2.03;;;1.55;;
65387;SDS011;51992;53.528;49.474;2023-07-13T05:29:45;2.08;;;1.25;;
65387;SDS011;51992;53.528;49.474;2023-07-13T05:32:11;11.20;;;1.90;;
65387;SDS011;51992;53.528;49.474;2023-07-13T05:34:36;2.85;;;1.85;;
65387;SDS011;51992;53.528;49.474;2023-07-13T05:37:09;2.88;;;1.83;;
65387;SDS011;51992;53.528;49.474;2023-07-13T05:39:35;11.80;;;2.38;;
65387;SDS011;51992;53.528;49.474;2023-07-13T05:42:01;4.68;;;2.40;;
65387;SDS011;51992;53.528;49.474;2023-07-13T05:44:27;5.88;;;2.00;;
65387;SDS011;51992;53.528;49.474;2023-07-13T05:46:53;8.23;;;2.17;;
65387;SDS011;51992;53.528;49.474;2023-07-13T05:49:20;9.38;;;2.30;;
65387;SDS011;51992;53.528;49.474;2023-07-13T05:51:46;2.33;;;1.80;;
65387;SDS011;51992;53.528;49.474;2023-07-13T05:54:11;4.03;;;2.10;;
65387;SDS011;51992;53.528;49.474;2023-07-13T05:56:37;5.65;;;2.20;;
65387;SDS011;51992;53.528;49.474;2023-07-13T05:59:03;5.65;;;2.22;;
65387;SDS011;51992;53.528;49.474;2023-07-13T06:01:29;19.48;;;2.80;;
65387;SDS011;51992;53.528;49.474;2023-07-13T06:03:55;4.85;;;2.33;;
65387;SDS011;51992;53.528;49.474;2023-07-13T06:06:20;2.75;;;1.48;;
65387;SDS011;51992;53.528;49.474;2023-07-13T06:08:46;4.45;;;1.70;;
65387;SDS011;51992;53.528;49.474;2023-07-13T06:11:14;5.82;;;1.50;;
65387;SDS011;51992;53.528;49.474;2023-07-13T06:13:40;1.40;;;1.30;;
65387;SDS011;51992;53.528;49.474;2023-07-13T06:16:06;5.68;;;1.80;;
65387;SDS011;51992;53.528;49.474;2023-07-13T06:18:33;7.55;;;1.88;;
65387;SDS011;51992;53.528;49.474;2023-07-13T06:20:59;2.83;;;1.60;;
65387;SDS011;51992;53.528;49.474;2023-07-13T06:23:25;3.40;;;1.60;;
65387;SDS011;51992;53.528;49.474;2023-07-13T06:25:51;3.35;;;1.40;;
65387;SDS011;51992;53.528;49.474;2023-07-13T06:28:16;4.47;;;1.70;;
65387;SDS011;51992;53.528;49.474;2023-07-13T06:30:42;11.88;;;1.92;;
65387;SDS011;51992;53.528;49.474;2023-07-13T06:33:08;3.05;;;1.80;;
65387;SDS011;51992;53.528;49.474;2023-07-13T06:35:34;6.05;;;2.28;;
65387;SDS011;51992;53.528;49.474;2023-07-13T06:37:59;2.95;;;1.77;;
65387;SDS011;51992;53.528;49.474;2023-07-13T06:40:25;5.78;;;1.88;;
65387;SDS011;51992;53.528;49.474;2023-07-13T06:42:51;5.43;;;2.30;;
65387;SDS011;51992;53.528;49.474;2023-07-13T06:45:17;2.58;;;1.73;;
65387;SDS011;51992;53.528;49.474;2023-07-13T06:47:43;1.30;;;1.20;;
65387;SDS011;51992;53.528;49.474;2023-07-13T06:50:08;3.47;;;1.45;;
65387;SDS011;51992;53.528;49.474;2023-07-13T06:52:34;4.20;;;2.17;;
65387;SDS011;51992;53.528;49.474;2023-07-13T06:55:00;8.15;;;2.15;;
65387;SDS011;51992;53.528;49.474;2023-07-13T06:57:26;1.95;;;1.70;;
65387;SDS011;51992;53.528;49.474;2023-07-13T06:59:52;2.85;;;1.90;;
65387;SDS011;51992;53.528;49.474;2023-07-13T07:02:18;4.45;;;1.98;;
65387;SDS011;51992;53.528;49.474;2023-07-13T07:04:44;5.25;;;2.53;;
65387;SDS011;51992;53.528;49.474;2023-07-13T07:07:09;4.93;;;1.73;;
65387;SDS011;51992;53.528;49.474;2023-07-13T07:09:35;3.90;;;1.92;;
65387;SDS011;51992;53.528;49.474;2023-07-13T07:12:02;2.28;;;2.08;;
65387;SDS011;51992;53.528;49.474;2023-07-13T07:14:27;4.78;;;1.90;;
65387;SDS011;51992;53.528;49.474;2023-07-13T07:16:53;3.03;;;1.95;;
65387;SDS011;51992;53.528;49.474;2023-07-13T07:19:19;5.75;;;2.10;;
65387;SDS011;51992;53.528;49.474;2023-07-13T07:21:45;2.75;;;1.67;;
65387;SDS011;51992;53.528;49.474;2023-07-13T07:24:11;1.65;;;1.55;;
65387;SDS011;51992;53.528;49.474;2023-07-13T07:26:36;2.22;;;2.03;;
65387;SDS011;51992;53.528;49.474;2023-07-13T07:29:02;2.65;;;1.83;;
65387;SDS011;51992;53.528;49.474;2023-07-13T07:31:28;2.15;;;1.70;;
65387;SDS011;51992;53.528;49.474;2023-07-13T07:33:54;5.53;;;2.00;;
65387;SDS011;51992;53.528;49.474;2023-07-13T07:36:19;2.05;;;1.23;;
65387;SDS011;51992;53.528;49.474;2023-07-13T07:38:45;1.73;;;1.50;;
65387;SDS011;51992;53.528;49.474;2023-07-13T07:41:11;7.82;;;1.88;;
65387;SDS011;51992;53.528;49.474;2023-07-13T07:43:37;6.47;;;1.90;;
65387;SDS011;51992;53.528;49.474;2023-07-13T07:46:03;1.60;;;1.38;;
65387;SDS011;51992;53.528;49.474;2023-07-13T07:48:28;3.42;;;1.58;;
65387;SDS011;51992;53.528;49.474;2023-07-13T07:50:54;1.65;;;1.00;;
65387;SDS011;51992;53.528;49.474;2023-07-13T07:53:20;6.90;;;1.65;;
65387;SDS011;51992;53.528;49.474;2023-07-13T07:55:47;4.82;;;1.60;;
65387;SDS011;51992;53.528;49.474;2023-07-13T07:58:16;11.95;;;2.45;;
65387;SDS011;51992;53.528;49.474;2023-07-13T08:00:42;5.60;;;1.48;;
65387;SDS011;51992;53.528;49.474;2023-07-13T08:03:08;2.88;;;1.42;;
65387;SDS011;51992;53.528;49.474;2023-07-13T08:05:37;3.55;;;1.60;;
65387;SDS011;51992;53.528;49.474;2023-07-13T08:08:03;3.40;;;1.27;;
65387;SDS011;51992;53.528;49.474;2023-07-13T08:10:34;1.98;;;1.30;;
65387;SDS011;51992;53.528;49.474;2023-07-13T08:13:00;1.98;;;1.55;;
65387;SDS011;51992;53.528;49.474;2023-07-13T08:15:26;5.72;;;1.20;;
65387;SDS011;51992;53.528;49.474;2023-07-13T08:17:52;9.18;;;2.35;;
65387;SDS011;51992;53.528;49.474;2023-07-13T08:20:19;4.05;;;1.25;;
65387;SDS011;51992;53.528;49.474;2023-07-13T08:22:55;1.60;;;1.50;;
65387;SDS011;51992;53.528;49.474;2023-07-13T08:25:39;3.42;;;1.10;;
65387;SDS011;51992;53.528;49.474;2023-07-13T08:28:19;3.25;;;1.13;;
65387;SDS011;51992;53.528;49.474;2023-07-13T08:30:45;1.25;;;1.05;;
65387;SDS011;51992;53.528;49.474;2023-07-13T08:33:15;4.45;;;1.77;;
65387;SDS011;51992;53.528;49.474;2023-07-13T08:35:50;1.70;;;1.23;;
65387;SDS011;51992;53.528;49.474;2023-07-13T08:38:18;6.03;;;1.83;;
65387;SDS011;51992;53.528;49.474;2023-07-13T08:40:49;6.50;;;1.70;;
65387;SDS011;51992;53.528;49.474;2023-07-13T08:43:17;2.35;;;1.55;;
65387;SDS011;51992;53.528;49.474;2023-07-13T08:48:17;1.58;;;1.40;;
65387;SDS011;51992;53.528;49.474;2023-07-13T08:55:51;6.03;;;1.55;;
65387;SDS011;51992;53.528;49.474;2023-07-13T08:58:20;4.53;;;2.00;;
65387;SDS011;51992;53.528;49.474;2023-07-13T09:00:56;2.72;;;1.88;;
65387;SDS011;51992;53.528;49.474;2023-07-13T09:03:26;1.50;;;1.40;;
65387;SDS011;51992;53.528;49.474;2023-07-13T09:05:58;2.35;;;1.90;;
65387;SDS011;51992;53.528;49.474;2023-07-13T09:16:30;2.53;;;1.73;;
65387;SDS011;51992;53.528;49.474;2023-07-13T09:18:56;2.22;;;1.63;;
65387;SDS011;51992;53.528;49.474;2023-07-13T09:21:26;3.03;;;1.95;;
65387;SDS011;51992;53.528;49.474;2023-07-13T09:23:53;2.47;;;1.42;;
65387;SDS011;51992;53.528;49.474;2023-07-13T09:26:22;3.63;;;1.80;;
65387;SDS011;51992;53.528;49.474;2023-07-13T09:28:48;2.83;;;2.03;;
65387;SDS011;51992;53.528;49.474;2023-07-13T09:31:19;10.10;;;2.67;;
65387;SDS011;51992;53.528;49.474;2023-07-13T09:33:47;21.83;;;4.03;;
65387;SDS011;51992;53.528;49.474;2023-07-13T09:38:42;6.03;;;1.92;;
65387;SDS011;51992;53.528;49.474;2023-07-13T09:43:36;2.55;;;1.70;;
65387;SDS011;51992;53.528;49.474;2023-07-13T09:46:02;4.93;;;2.20;;
65387;SDS011;51992;53.528;49.474;2023-07-13T09:48:33;5.35;;;1.80;;
65387;SDS011;51992;53.528;49.474;2023-07-13T09:53:25;5.38;;;2.30;;
65387;SDS011;51992;53.528;49.474;2023-07-13T09:55:56;2.17;;;1.90;;
65387;SDS011;51992;53.528;49.474;2023-07-13T09:58:25;7.93;;;1.95;;
65387;SDS011;51992;53.528;49.474;2023-07-13T10:00:59;6.20;;;2.20;;
65387;SDS011;51992;53.528;49.474;2023-07-13T10:03:29;2.78;;;2.03;;
65387;SDS011;51992;53.528;49.474;2023-07-13T10:06:09;15.13;;;3.25;;
65387;SDS011;51992;53.528;49.474;2023-07-13T10:08:36;10.55;;;2.80;;
65387;SDS011;51992;53.528;49.474;2023-07-13T10:11:23;9.55;;;2.47;;
65387;SDS011;51992;53.528;49.474;2023-07-13T10:14:10;3.58;;;1.70;;
65387;SDS011;51992;53.528;49.474;2023-07-13T10:16:34;4.20;;;2.20;;
65387;SDS011;51992;53.528;49.474;2023-07-13T10:19:02;5.13;;;2.20;;
65387;SDS011;51992;53.528;49.474;2023-07-13T10:21:33;5.43;;;1.95;;
65387;SDS011;51992;53.528;49.474;2023-07-13T10:24:19;6.05;;;2.40;;
65387;SDS011;51992;53.528;49.474;2023-07-13T10:26:53;3.97;;;2.13;;
65387;SDS011;51992;53.528;49.474;2023-07-13T10:29:21;5.93;;;2.40;;
65387;SDS011;51992;53.528;49.474;2023-07-13T10:31:48;6.18;;;2.33;;
65387;SDS011;51992;53.528;49.474;2023-07-13T10:34:13;17.02;;;2.90;;
65387;SDS011;51992;53.528;49.474;2023-07-13T10:36:40;113.05;;;7.85;;
65387;SDS011;51992;53.528;49.474;2023-07-13T10:39:09;11.73;;;2.15;;
65387;SDS011;51992;53.528;49.474;2023-07-13T10:41:39;12.75;;;2.95;;
65387;SDS011;51992;53.528;49.474;2023-07-13T10:44:09;9.45;;;2.08;;
65387;SDS011;51992;53.528;49.474;2023-07-13T10:46:37;6.50;;;1.98;;
65387;SDS011;51992;53.528;49.474;2023-07-13T10:49:05;3.33;;;1.80;;
65387;SDS011;51992;53.528;49.474;2023-07-13T10:51:31;2.88;;;1.83;;
65387;SDS011;51992;53.528;49.474;2023-07-13T10:54:57;9.23;;;2.28;;
65387;SDS011;51992;53.528;49.474;2023-07-13T10:57:41;5.03;;;1.65;;
65387;SDS011;51992;53.528;49.474;2023-07-13T10:59:38;5.80;;;1.98;;
65387;SDS011;51992;53.528;49.474;2023-07-13T11:04:45;7.07;;;2.20;;
65387;SDS011;51992;53.528;49.474;2023-07-13T11:07:51;25.60;;;3.97;;
65387;SDS011;51992;53.528;49.474;2023-07-13T11:10:06;22.38;;;4.82;;
65387;SDS011;51992;53.528;49.474;2023-07-13T11:12:53;12.02;;;4.30;;
65387;SDS011;51992;53.528;49.474;2023-07-13T11:15:38;26.13;;;5.30;;
65387;SDS011;51992;53.528;49.474;2023-07-13T11:18:19;19.20;;;5.18;;
65387;SDS011;51992;53.528;49.474;2023-07-13T11:20:48;26.85;;;6.35;;
65387;SDS011;51992;53.528;49.474;2023-07-13T11:25:43;34.35;;;7.55;;
65387;SDS011;51992;53.528;49.474;2023-07-13T11:30:42;27.65;;;6.75;;
65387;SDS011;51992;53.528;49.474;2023-07-13T11:35:36;14.68;;;4.50;;
65387;SDS011;51992;53.528;49.474;2023-07-13T11:38:09;9.35;;;4.00;;
65387;SDS011;51992;53.528;49.474;2023-07-13T11:40:37;33.35;;;7.32;;
65387;SDS011;51992;53.528;49.474;2023-07-13T11:43:03;13.85;;;3.85;;
65387;SDS011;51992;53.528;49.474;2023-07-13T11:45:32;8.75;;;2.80;;
65387;SDS011;51992;53.528;49.474;2023-07-13T11:47:58;2.97;;;2.67;;
65387;SDS011;51992;53.528;49.474;2023-07-13T11:50:25;14.23;;;6.13;;
65387;SDS011;51992;53.528;49.474;2023-07-13T11:52:52;10.25;;;5.35;;
65387;SDS011;51992;53.528;49.474;2023-07-13T11:55:20;17.63;;;6.00;;
65387;SDS011;51992;53.528;49.474;2023-07-13T11:57:47;15.60;;;6.38;;
65387;SDS011;51992;53.528;49.474;2023-07-13T12:00:15;6.30;;;3.63;;
65387;SDS011;51992;53.528;49.474;2023-07-13T12:02:47;17.17;;;7.70;;
65387;SDS011;51992;53.528;49.474;2023-07-13T12:05:15;24.17;;;10.15;;
65387;SDS011;51992;53.528;49.474;2023-07-13T12:07:43;47.10;;;16.88;;
65387;SDS011;51992;53.528;49.474;2023-07-13T12:12:37;5.30;;;3.22;;
65387;SDS011;51992;53.528;49.474;2023-07-13T12:15:06;6.18;;;2.15;;
65387;SDS011;51992;53.528;49.474;2023-07-13T12:17:34;25.17;;;10.95;;
65387;SDS011;51992;53.528;49.474;2023-07-13T12:20:00;26.88;;;12.82;;
65387;SDS011;51992;53.528;49.474;2023-07-13T12:22:26;23.33;;;9.32;;
65387;SDS011;51992;53.528;49.474;2023-07-13T12:24:52;19.10;;;7.45;;
65387;SDS011;51992;53.528;49.474;2023-07-13T12:27:20;9.98;;;5.55;;
65387;SDS011;51992;53.528;49.474;2023-07-13T12:30:24;4.22;;;2.30;;
65387;SDS011;51992;53.528;49.474;2023-07-13T12:32:36;5.88;;;1.80;;
65387;SDS011;51992;53.528;49.474;2023-07-13T12:35:20;2.63;;;1.50;;
65387;SDS011;51992;53.528;49.474;2023-07-13T12:37:46;4.10;;;1.92;;
65387;SDS011;51992;53.528;49.474;2023-07-13T12:40:15;6.55;;;2.60;;
65387;SDS011;51992;53.528;49.474;2023-07-13T12:42:42;4.97;;;2.90;;
65387;SDS011;51992;53.528;49.474;2023-07-13T12:45:16;15.35;;;3.00;;
65387;SDS011;51992;53.528;49.474;2023-07-13T12:47:43;4.63;;;2.10;;
65387;SDS011;51992;53.528;49.474;2023-07-13T12:50:14;6.32;;;2.40;;
65387;SDS011;51992;53.528;49.474;2023-07-13T12:52:40;5.35;;;2.45;;
65387;SDS011;51992;53.528;49.474;2023-07-13T12:55:17;13.20;;;3.10;;
65387;SDS011;51992;53.528;49.474;2023-07-13T12:57:54;12.98;;;3.72;;
65387;SDS011;51992;53.528;49.474;2023-07-13T13:00:33;16.92;;;3.20;;
65387;SDS011;51992;53.528;49.474;2023-07-13T13:03:45;4.97;;;2.05;;
65387;SDS011;51992;53.528;49.474;2023-07-13T13:05:49;6.43;;;1.88;;
65387;SDS011;51992;53.528;49.474;2023-07-13T13:08:22;5.78;;;1.83;;
65387;SDS011;51992;53.528;49.474;2023-07-13T13:10:47;5.43;;;1.58;;
65387;SDS011;51992;53.528;49.474;2023-07-13T13:13:16;4.65;;;1.73;;
65387;SDS011;51992;53.528;49.474;2023-07-13T13:15:42;4.63;;;1.73;;
65387;SDS011;51992;53.528;49.474;2023-07-13T13:18:18;12.63;;;2.28;;
65387;SDS011;51992;53.528;49.474;2023-07-13T13:20:47;1.67;;;1.58;;
65387;SDS011;51992;53.528;49.474;2023-07-13T13:23:14;4.13;;;1.98;;
65387;SDS011;51992;53.528;49.474;2023-07-13T13:25:41;4.90;;;1.60;;
65387;SDS011;51992;53.528;49.474;2023-07-13T13:28:12;2.78;;;1.90;;
65387;SDS011;51992;53.528;49.474;2023-07-13T13:30:39;6.70;;;2.33;;
65387;SDS011;51992;53.528;49.474;2023-07-13T13:33:08;5.35;;;2.08;;
65387;SDS011;51992;53.528;49.474;2023-07-13T13:35:34;8.70;;;2.50;;
65387;SDS011;51992;53.528;49.474;2023-07-13T13:38:00;5.05;;;2.00;;
65387;SDS011;51992;53.528;49.474;2023-07-13T13:40:25;2.65;;;1.60;;
65387;SDS011;51992;53.528;49.474;2023-07-13T13:42:53;4.93;;;1.67;;
65387;SDS011;51992;53.528;49.474;2023-07-13T13:45:21;24.00;;;3.88;;
65387;SDS011;51992;53.528;49.474;2023-07-13T13:47:46;9.98;;;2.50;;
65387;SDS011;51992;53.528;49.474;2023-07-13T13:50:14;7.43;;;2.33;;
65387;SDS011;51992;53.528;49.474;2023-07-13T13:52:41;11.93;;;2.25;;
65387;SDS011;51992;53.528;49.474;2023-07-13T13:55:14;8.60;;;2.45;;
65387;SDS011;51992;53.528;49.474;2023-07-13T13:57:40;5.40;;;2.00;;
65387;SDS011;51992;53.528;49.474;2023-07-13T14:00:06;16.25;;;3.00;;
65387;SDS011;51992;53.528;49.474;2023-07-13T14:02:31;8.63;;;2.72;;
65387;SDS011;51992;53.528;49.474;2023-07-13T14:04:58;5.97;;;2.15;;
65387;SDS011;51992;53.528;49.474;2023-07-13T14:07:25;4.15;;;2.30;;
65387;SDS011;51992;53.528;49.474;2023-07-13T14:09:52;4.80;;;2.20;;
65387;SDS011;51992;53.528;49.474;2023-07-13T14:12:17;3.15;;;1.90;;
65387;SDS011;51992;53.528;49.474;2023-07-13T14:14:43;2.75;;;1.40;;
65387;SDS011;51992;53.528;49.474;2023-07-13T14:17:15;2.78;;;1.65;;
65387;SDS011;51992;53.528;49.474;2023-07-13T14:19:43;2.45;;;1.40;;
65387;SDS011;51992;53.528;49.474;2023-07-13T14:22:09;5.93;;;2.45;;
65387;SDS011;51992;53.528;49.474;2023-07-13T14:24:34;2.90;;;1.52;;
65387;SDS011;51992;53.528;49.474;2023-07-13T14:27:00;3.30;;;1.40;;
65387;SDS011;51992;53.528;49.474;2023-07-13T14:29:26;3.63;;;1.70;;
65387;SDS011;51992;53.528;49.474;2023-07-13T14:31:51;1.75;;;1.60;;
65387;SDS011;51992;53.528;49.474;2023-07-13T14:34:17;1.80;;;1.55;;
65387;SDS011;51992;53.528;49.474;2023-07-13T14:36:44;2.50;;;1.42;;
65387;SDS011;51992;53.528;49.474;2023-07-13T14:39:11;4.25;;;1.67;;
65387;SDS011;51992;53.528;49.474;2023-07-13T14:41:38;2.85;;;1.45;;
65387;SDS011;51992;53.528;49.474;2023-07-13T14:44:13;1.40;;;1.30;;
65387;SDS011;51992;53.528;49.474;2023-07-13T14:46:39;3.28;;;1.50;;
65387;SDS011;51992;53.528;49.474;2023-07-13T14:51:43;7.82;;;2.30;;
65387;SDS011;51992;53.528;49.474;2023-07-13T14:54:08;5.18;;;1.77;;
65387;SDS011;51992;53.528;49.474;2023-07-13T14:56:35;10.95;;;2.03;;
65387;SDS011;51992;53.528;49.474;2023-07-13T14:59:00;4.97;;;1.80;;
65387;SDS011;51992;53.528;49.474;2023-07-13T15:01:26;2.17;;;1.67;;
65387;SDS011;51992;53.528;49.474;2023-07-13T15:03:52;6.18;;;1.55;;
65387;SDS011;51992;53.528;49.474;2023-07-13T15:06:18;3.67;;;1.80;;
65387;SDS011;51992;53.528;49.474;2023-07-13T15:08:44;2.65;;;1.27;;
65387;SDS011;51992;53.528;49.474;2023-07-13T15:11:10;4.75;;;1.48;;
65387;SDS011;51992;53.528;49.474;2023-07-13T15:13:40;4.57;;;1.45;;
65387;SDS011;51992;53.528;49.474;2023-07-13T15:16:15;4.18;;;2.20;;